sensor_id;sensor_type;location;lat;lon;timestamp;temperature;humidity
21115;DHT22;10715;48.546;9.896;2022-10-30T00:01:54;8.40;99.90
21115;DHT22;10715;48.546;9.896;2022-10-30T00:04:19;8.50;99.90
21115;DHT22;10715;48.546;9.896;2022-10-30T00:06:45;8.50;99.90
21115;DHT22;10715;48.546;9.896;2022-10-30T00:09:11;8.40;99.90
21115;DHT22;10715;48.546;9.896;2022-10-30T00:11:36;8.40;99.90
21115;DHT22;10715;48.546;9.896;2022-10-30T00:14:02;8.40;99.90
21115;DHT22;10715;48.546;9.896;2022-10-30T00:16:28;8.40;99.90
21115;DHT22;10715;48.546;9.896;2022-10-30T00:18:53;8.40;99.90
21115;DHT22;10715;48.546;9.896;2022-10-30T00:21:19;8.30;99.90
21115;DHT22;10715;48.546;9.896;2022-10-30T00:23:47;8.30;99.90
21115;DHT22;10715;48.546;9.896;2022-10-30T00:26:13;8.30;99.90
21115;DHT22;10715;48.546;9.896;2022-10-30T00:28:39;8.30;99.90
21115;DHT22;10715;48.546;9.896;2022-10-30T00:31:06;8.20;99.90
21115;DHT22;10715;48.546;9.896;2022-10-30T00:33:32;8.20;99.90
21115;DHT22;10715;48.546;9.896;2022-10-30T00:35:58;8.20;99.90
21115;DHT22;10715;48.546;9.896;2022-10-30T00:38:23;8.20;99.90
21115;DHT22;10715;48.546;9.896;2022-10-30T00:40:49;8.10;99.90
21115;DHT22;10715;48.546;9.896;2022-10-30T00:48:37;8.10;99.90
21115;DHT22;10715;48.546;9.896;2022-10-30T00:51:04;8.10;99.90
21115;DHT22;10715;48.546;9.896;2022-10-30T00:53:33;8.10;99.90
21115;DHT22;10715;48.546;9.896;2022-10-30T00:56:01;8.10;99.90
21115;DHT22;10715;48.546;9.896;2022-10-30T00:58:38;8.10;99.90
21115;DHT22;10715;48.546;9.896;2022-10-30T01:01:10;8.10;99.90
21115;DHT22;10715;48.546;9.896;2022-10-30T01:03:38;8.00;99.90
21115;DHT22;10715;48.546;9.896;2022-10-30T01:06:09;8.00;99.90
21115;DHT22;10715;48.546;9.896;2022-10-30T01:08:37;8.00;99.90
21115;DHT22;10715;48.546;9.896;2022-10-30T01:11:03;8.00;99.90
21115;DHT22;10715;48.546;9.896;2022-10-30T01:13:31;7.90;99.90
21115;DHT22;10715;48.546;9.896;2022-10-30T01:16:20;7.80;99.90
21115;DHT22;10715;48.546;9.896;2022-10-30T01:24:42;7.70;99.90
21115;DHT22;10715;48.546;9.896;2022-10-30T01:33:07;7.60;99.90
21115;DHT22;10715;48.546;9.896;2022-10-30T01:35:43;7.50;99.90
21115;DHT22;10715;48.546;9.896;2022-10-30T01:38:27;7.50;99.90
21115;DHT22;10715;48.546;9.896;2022-10-30T01:40:54;7.50;99.90
21115;DHT22;10715;48.546;9.896;2022-10-30T01:43:20;7.50;99.90
21115;DHT22;10715;48.546;9.896;2022-10-30T01:59:46;7.50;99.90
21115;DHT22;10715;48.546;9.896;2022-10-30T02:02:12;7.50;99.90
21115;DHT22;10715;48.546;9.896;2022-10-30T02:04:38;7.50;99.90
21115;DHT22;10715;48.546;9.896;2022-10-30T02:07:04;7.50;99.90
21115;DHT22;10715;48.546;9.896;2022-10-30T02:09:30;7.50;99.90
21115;DHT22;10715;48.546;9.896;2022-10-30T02:11:57;7.40;99.90
21115;DHT22;10715;48.546;9.896;2022-10-30T02:14:27;7.40;99.90
21115;DHT22;10715;48.546;9.896;2022-10-30T02:16:56;7.30;99.90
21115;DHT22;10715;48.546;9.896;2022-10-30T02:19:23;7.30;99.90
21115;DHT22;10715;48.546;9.896;2022-10-30T02:21:49;7.20;99.90
21115;DHT22;10715;48.546;9.896;2022-10-30T02:24:15;7.20;99.90
21115;DHT22;10715;48.546;9.896;2022-10-30T02:26:41;7.10;99.90
21115;DHT22;10715;48.546;9.896;2022-10-30T02:29:06;7.10;99.90
21115;DHT22;10715;48.546;9.896;2022-10-30T02:31:32;7.10;99.90
21115;DHT22;10715;48.546;9.896;2022-10-30T02:33:58;7.10;99.90
21115;DHT22;10715;48.546;9.896;2022-10-30T02:36:24;7.00;99.90
21115;DHT22;10715;48.546;9.896;2022-10-30T02:38:49;7.00;99.90
21115;DHT22;10715;48.546;9.896;2022-10-30T02:41:15;6.90;99.90
21115;DHT22;10715;48.546;9.896;2022-10-30T02:43:41;6.90;99.90
21115;DHT22;10715;48.546;9.896;2022-10-30T02:46:07;6.90;99.90
21115;DHT22;10715;48.546;9.896;2022-10-30T02:48:32;6.80;99.90
21115;DHT22;10715;48.546;9.896;2022-10-30T02:51:02;6.80;99.90
21115;DHT22;10715;48.546;9.896;2022-10-30T02:53:28;6.80;99.90
21115;DHT22;10715;48.546;9.896;2022-10-30T02:55:54;6.70;99.90
21115;DHT22;10715;48.546;9.896;2022-10-30T02:58:20;6.70;99.90
21115;DHT22;10715;48.546;9.896;2022-10-30T03:00:46;6.60;99.90
21115;DHT22;10715;48.546;9.896;2022-10-30T03:03:11;6.60;99.90
21115;DHT22;10715;48.546;9.896;2022-10-30T03:05:37;6.60;99.90
21115;DHT22;10715;48.546;9.896;2022-10-30T03:08:03;6.60;99.90
21115;DHT22;10715;48.546;9.896;2022-10-30T03:10:29;6.50;99.90
21115;DHT22;10715;48.546;9.896;2022-10-30T03:12:54;6.50;99.90
21115;DHT22;10715;48.546;9.896;2022-10-30T03:15:20;6.50;99.90
21115;DHT22;10715;48.546;9.896;2022-10-30T03:17:46;6.50;99.90
21115;DHT22;10715;48.546;9.896;2022-10-30T03:20:12;6.40;99.90
21115;DHT22;10715;48.546;9.896;2022-10-30T03:22:38;6.40;99.90
21115;DHT22;10715;48.546;9.896;2022-10-30T03:25:04;6.30;99.90
21115;DHT22;10715;48.546;9.896;2022-10-30T03:27:30;6.40;99.90
21115;DHT22;10715;48.546;9.896;2022-10-30T03:29:56;6.40;99.90
21115;DHT22;10715;48.546;9.896;2022-10-30T03:32:21;6.30;99.90
21115;DHT22;10715;48.546;9.896;2022-10-30T03:34:47;6.20;99.90
21115;DHT22;10715;48.546;9.896;2022-10-30T03:37:13;6.30;99.90
21115;DHT22;10715;48.546;9.896;2022-10-30T03:39:38;6.30;99.90
21115;DHT22;10715;48.546;9.896;2022-10-30T03:42:04;6.30;99.90
21115;DHT22;10715;48.546;9.896;2022-10-30T03:44:30;6.30;99.90
21115;DHT22;10715;48.546;9.896;2022-10-30T03:46:55;6.20;99.90
21115;DHT22;10715;48.546;9.896;2022-10-30T03:49:22;6.20;99.90
21115;DHT22;10715;48.546;9.896;2022-10-30T03:51:48;6.20;99.90
21115;DHT22;10715;48.546;9.896;2022-10-30T03:54:14;6.20;99.90
21115;DHT22;10715;48.546;9.896;2022-10-30T03:56:40;6.20;99.90
21115;DHT22;10715;48.546;9.896;2022-10-30T03:59:05;6.20;99.90
21115;DHT22;10715;48.546;9.896;2022-10-30T04:01:31;6.30;99.90
21115;DHT22;10715;48.546;9.896;2022-10-30T04:03:56;6.20;99.90
21115;DHT22;10715;48.546;9.896;2022-10-30T04:06:22;6.20;99.90
21115;DHT22;10715;48.546;9.896;2022-10-30T04:08:48;6.20;99.90
21115;DHT22;10715;48.546;9.896;2022-10-30T04:11:14;6.20;99.90
21115;DHT22;10715;48.546;9.896;2022-10-30T04:13:39;6.20;99.90
21115;DHT22;10715;48.546;9.896;2022-10-30T04:16:05;6.20;99.90
21115;DHT22;10715;48.546;9.896;2022-10-30T04:18:31;6.20;99.90
21115;DHT22;10715;48.546;9.896;2022-10-30T04:20:58;6.20;99.90
21115;DHT22;10715;48.546;9.896;2022-10-30T04:23:24;6.20;99.90
21115;DHT22;10715;48.546;9.896;2022-10-30T04:25:50;6.20;99.90
21115;DHT22;10715;48.546;9.896;2022-10-30T04:28:16;6.20;99.90
21115;DHT22;10715;48.546;9.896;2022-10-30T04:30:42;6.20;99.90
21115;DHT22;10715;48.546;9.896;2022-10-30T04:33:11;6.30;99.90
21115;DHT22;10715;48.546;9.896;2022-10-30T04:35:38;6.30;99.90
21115;DHT22;10715;48.546;9.896;2022-10-30T04:38:06;6.20;99.90
21115;DHT22;10715;48.546;9.896;2022-10-30T04:40:34;6.20;99.90
21115;DHT22;10715;48.546;9.896;2022-10-30T04:43:00;6.20;99.90
21115;DHT22;10715;48.546;9.896;2022-10-30T04:45:27;6.20;99.90
21115;DHT22;10715;48.546;9.896;2022-10-30T04:48:02;6.20;99.90
21115;DHT22;10715;48.546;9.896;2022-10-30T04:50:29;6.20;99.90
21115;DHT22;10715;48.546;9.896;2022-10-30T04:53:06;6.20;99.90
21115;DHT22;10715;48.546;9.896;2022-10-30T04:55:33;6.20;99.90
21115;DHT22;10715;48.546;9.896;2022-10-30T04:58:00;6.10;99.90
21115;DHT22;10715;48.546;9.896;2022-10-30T05:00:27;6.10;99.90
21115;DHT22;10715;48.546;9.896;2022-10-30T05:02:53;6.10;99.90
21115;DHT22;10715;48.546;9.896;2022-10-30T05:05:19;6.10;99.90
21115;DHT22;10715;48.546;9.896;2022-10-30T05:07:45;6.10;99.90
21115;DHT22;10715;48.546;9.896;2022-10-30T05:10:14;6.10;99.90
21115;DHT22;10715;48.546;9.896;2022-10-30T05:12:42;6.10;99.90
21115;DHT22;10715;48.546;9.896;2022-10-30T05:15:08;6.10;99.90
21115;DHT22;10715;48.546;9.896;2022-10-30T05:17:34;6.00;99.90
21115;DHT22;10715;48.546;9.896;2022-10-30T05:20:00;6.00;99.90
21115;DHT22;10715;48.546;9.896;2022-10-30T05:22:25;5.90;99.90
21115;DHT22;10715;48.546;9.896;2022-10-30T05:24:51;5.90;99.90
21115;DHT22;10715;48.546;9.896;2022-10-30T05:27:16;5.90;99.90
21115;DHT22;10715;48.546;9.896;2022-10-30T05:29:42;5.90;99.90
21115;DHT22;10715;48.546;9.896;2022-10-30T05:32:08;5.90;99.90
21115;DHT22;10715;48.546;9.896;2022-10-30T05:34:33;5.90;99.90
21115;DHT22;10715;48.546;9.896;2022-10-30T05:36:59;5.90;99.90
21115;DHT22;10715;48.546;9.896;2022-10-30T05:39:26;5.80;99.90
21115;DHT22;10715;48.546;9.896;2022-10-30T05:41:52;5.80;99.90
21115;DHT22;10715;48.546;9.896;2022-10-30T05:44:18;5.90;99.90
21115;DHT22;10715;48.546;9.896;2022-10-30T05:46:43;5.90;99.90
21115;DHT22;10715;48.546;9.896;2022-10-30T05:49:09;5.90;99.90
21115;DHT22;10715;48.546;9.896;2022-10-30T05:51:35;5.90;99.90
21115;DHT22;10715;48.546;9.896;2022-10-30T05:54:00;5.90;99.90
21115;DHT22;10715;48.546;9.896;2022-10-30T05:56:26;5.80;99.90
21115;DHT22;10715;48.546;9.896;2022-10-30T05:58:52;5.80;99.90
21115;DHT22;10715;48.546;9.896;2022-10-30T06:01:18;5.80;99.90
21115;DHT22;10715;48.546;9.896;2022-10-30T06:03:44;5.80;99.90
21115;DHT22;10715;48.546;9.896;2022-10-30T06:06:10;5.70;99.90
21115;DHT22;10715;48.546;9.896;2022-10-30T06:08:36;5.70;99.90
21115;DHT22;10715;48.546;9.896;2022-10-30T06:11:01;5.70;99.90
21115;DHT22;10715;48.546;9.896;2022-10-30T06:13:27;5.70;99.90
21115;DHT22;10715;48.546;9.896;2022-10-30T06:15:54;5.70;99.90
21115;DHT22;10715;48.546;9.896;2022-10-30T06:18:21;5.60;99.90
21115;DHT22;10715;48.546;9.896;2022-10-30T06:20:47;5.60;99.90
21115;DHT22;10715;48.546;9.896;2022-10-30T06:23:12;5.70;99.90
21115;DHT22;10715;48.546;9.896;2022-10-30T06:25:38;5.60;99.90
21115;DHT22;10715;48.546;9.896;2022-10-30T06:28:05;5.70;99.90
21115;DHT22;10715;48.546;9.896;2022-10-30T06:30:30;5.70;99.90
21115;DHT22;10715;48.546;9.896;2022-10-30T06:32:57;5.70;99.90
21115;DHT22;10715;48.546;9.896;2022-10-30T06:35:23;5.70;99.90
21115;DHT22;10715;48.546;9.896;2022-10-30T06:37:49;5.70;99.90
21115;DHT22;10715;48.546;9.896;2022-10-30T06:40:16;5.70;99.90
21115;DHT22;10715;48.546;9.896;2022-10-30T06:42:46;5.70;99.90
21115;DHT22;10715;48.546;9.896;2022-10-30T06:45:14;5.70;99.90
21115;DHT22;10715;48.546;9.896;2022-10-30T06:47:40;5.70;99.90
21115;DHT22;10715;48.546;9.896;2022-10-30T06:50:08;5.80;99.90
21115;DHT22;10715;48.546;9.896;2022-10-30T06:52:34;5.80;99.90
21115;DHT22;10715;48.546;9.896;2022-10-30T06:55:00;5.80;99.90
21115;DHT22;10715;48.546;9.896;2022-10-30T06:57:26;5.90;99.90
21115;DHT22;10715;48.546;9.896;2022-10-30T06:59:51;5.90;99.90
21115;DHT22;10715;48.546;9.896;2022-10-30T07:02:17;6.00;99.90
21115;DHT22;10715;48.546;9.896;2022-10-30T07:04:43;6.00;99.90
21115;DHT22;10715;48.546;9.896;2022-10-30T07:07:10;6.10;99.90
21115;DHT22;10715;48.546;9.896;2022-10-30T07:09:36;6.20;99.90
21115;DHT22;10715;48.546;9.896;2022-10-30T07:12:02;6.30;99.90
21115;DHT22;10715;48.546;9.896;2022-10-30T07:14:28;6.40;99.90
21115;DHT22;10715;48.546;9.896;2022-10-30T07:16:54;6.50;99.90
21115;DHT22;10715;48.546;9.896;2022-10-30T07:19:20;6.60;99.90
21115;DHT22;10715;48.546;9.896;2022-10-30T07:21:46;6.60;99.90
21115;DHT22;10715;48.546;9.896;2022-10-30T07:24:12;6.70;99.90
21115;DHT22;10715;48.546;9.896;2022-10-30T07:26:38;6.80;99.90
21115;DHT22;10715;48.546;9.896;2022-10-30T07:29:04;6.90;99.90
21115;DHT22;10715;48.546;9.896;2022-10-30T07:31:30;6.90;99.90
21115;DHT22;10715;48.546;9.896;2022-10-30T07:33:56;7.00;99.90
21115;DHT22;10715;48.546;9.896;2022-10-30T07:36:22;7.10;99.90
21115;DHT22;10715;48.546;9.896;2022-10-30T07:38:49;7.20;99.90
21115;DHT22;10715;48.546;9.896;2022-10-30T07:41:17;7.30;99.90
21115;DHT22;10715;48.546;9.896;2022-10-30T07:43:44;7.40;99.90
21115;DHT22;10715;48.546;9.896;2022-10-30T07:46:10;7.50;99.90
21115;DHT22;10715;48.546;9.896;2022-10-30T07:48:36;7.60;99.90
21115;DHT22;10715;48.546;9.896;2022-10-30T07:51:02;7.70;99.90
21115;DHT22;10715;48.546;9.896;2022-10-30T07:53:27;7.80;99.90
21115;DHT22;10715;48.546;9.896;2022-10-30T07:55:54;7.90;99.90
21115;DHT22;10715;48.546;9.896;2022-10-30T07:58:20;8.00;99.90
21115;DHT22;10715;48.546;9.896;2022-10-30T08:00:46;8.10;99.90
21115;DHT22;10715;48.546;9.896;2022-10-30T08:03:12;8.30;99.90
21115;DHT22;10715;48.546;9.896;2022-10-30T08:05:38;8.40;99.90
21115;DHT22;10715;48.546;9.896;2022-10-30T08:08:04;8.60;99.90
21115;DHT22;10715;48.546;9.896;2022-10-30T08:10:30;8.70;99.90
21115;DHT22;10715;48.546;9.896;2022-10-30T08:12:55;8.90;99.90
21115;DHT22;10715;48.546;9.896;2022-10-30T08:15:21;9.00;99.90
21115;DHT22;10715;48.546;9.896;2022-10-30T08:17:49;9.20;99.90
21115;DHT22;10715;48.546;9.896;2022-10-30T08:20:17;9.30;99.90
21115;DHT22;10715;48.546;9.896;2022-10-30T08:22:47;9.50;99.90
21115;DHT22;10715;48.546;9.896;2022-10-30T08:25:13;9.60;99.90
21115;DHT22;10715;48.546;9.896;2022-10-30T08:27:47;9.70;99.90
21115;DHT22;10715;48.546;9.896;2022-10-30T08:30:13;9.90;99.90
21115;DHT22;10715;48.546;9.896;2022-10-30T08:32:39;10.10;99.90
21115;DHT22;10715;48.546;9.896;2022-10-30T08:35:05;10.20;99.90
21115;DHT22;10715;48.546;9.896;2022-10-30T08:37:31;10.50;99.90
21115;DHT22;10715;48.546;9.896;2022-10-30T08:39:56;10.70;99.90
21115;DHT22;10715;48.546;9.896;2022-10-30T08:42:22;10.80;99.90
21115;DHT22;10715;48.546;9.896;2022-10-30T08:44:48;11.10;99.90
21115;DHT22;10715;48.546;9.896;2022-10-30T08:47:13;11.20;99.90
21115;DHT22;10715;48.546;9.896;2022-10-30T08:49:39;11.40;99.90
21115;DHT22;10715;48.546;9.896;2022-10-30T08:52:08;11.60;99.90
21115;DHT22;10715;48.546;9.896;2022-10-30T08:54:34;11.90;99.90
21115;DHT22;10715;48.546;9.896;2022-10-30T08:57:00;12.00;99.90
21115;DHT22;10715;48.546;9.896;2022-10-30T08:59:26;12.20;99.90
21115;DHT22;10715;48.546;9.896;2022-10-30T09:01:52;12.40;99.90
21115;DHT22;10715;48.546;9.896;2022-10-30T09:04:18;12.50;99.90
21115;DHT22;10715;48.546;9.896;2022-10-30T09:06:43;12.70;99.90
21115;DHT22;10715;48.546;9.896;2022-10-30T09:09:09;12.90;99.90
21115;DHT22;10715;48.546;9.896;2022-10-30T09:11:36;13.00;99.90
21115;DHT22;10715;48.546;9.896;2022-10-30T09:14:02;13.20;99.90
21115;DHT22;10715;48.546;9.896;2022-10-30T09:16:28;13.50;99.90
21115;DHT22;10715;48.546;9.896;2022-10-30T09:18:53;13.70;99.90
21115;DHT22;10715;48.546;9.896;2022-10-30T09:21:19;14.30;99.90
21115;DHT22;10715;48.546;9.896;2022-10-30T09:23:45;16.50;99.90
21115;DHT22;10715;48.546;9.896;2022-10-30T09:26:10;19.90;99.90
21115;DHT22;10715;48.546;9.896;2022-10-30T09:28:36;23.00;99.90
21115;DHT22;10715;48.546;9.896;2022-10-30T09:31:02;25.80;99.90
21115;DHT22;10715;48.546;9.896;2022-10-30T09:33:28;27.90;98.20
21115;DHT22;10715;48.546;9.896;2022-10-30T09:35:54;29.30;94.20
21115;DHT22;10715;48.546;9.896;2022-10-30T09:38:20;30.10;91.30
21115;DHT22;10715;48.546;9.896;2022-10-30T09:47:07;29.50;83.60
21115;DHT22;10715;48.546;9.896;2022-10-30T09:49:49;29.10;84.00
21115;DHT22;10715;48.546;9.896;2022-10-30T10:00:37;31.00;77.80
21115;DHT22;10715;48.546;9.896;2022-10-30T10:05:57;30.00;78.00
21115;DHT22;10715;48.546;9.896;2022-10-30T10:11:00;29.20;80.10
21115;DHT22;10715;48.546;9.896;2022-10-30T10:13:49;28.90;80.60
21115;DHT22;10715;48.546;9.896;2022-10-30T10:16:22;28.40;82.00
21115;DHT22;10715;48.546;9.896;2022-10-30T10:19:08;27.40;85.60
21115;DHT22;10715;48.546;9.896;2022-10-30T10:22:39;26.50;87.10
21115;DHT22;10715;48.546;9.896;2022-10-30T10:24:37;25.70;88.20
21115;DHT22;10715;48.546;9.896;2022-10-30T10:44:19;24.00;92.20
21115;DHT22;10715;48.546;9.896;2022-10-30T10:52:22;23.50;93.30
21115;DHT22;10715;48.546;9.896;2022-10-30T10:54:55;24.20;92.40
21115;DHT22;10715;48.546;9.896;2022-10-30T10:57:32;25.50;90.30
21115;DHT22;10715;48.546;9.896;2022-10-30T11:00:05;26.20;88.70
21115;DHT22;10715;48.546;9.896;2022-10-30T11:05:29;26.30;89.70
21115;DHT22;10715;48.546;9.896;2022-10-30T11:08:00;26.50;87.60
21115;DHT22;10715;48.546;9.896;2022-10-30T11:10:28;26.50;90.10
21115;DHT22;10715;48.546;9.896;2022-10-30T11:12:54;26.10;90.10
21115;DHT22;10715;48.546;9.896;2022-10-30T11:15:34;25.90;90.00
21115;DHT22;10715;48.546;9.896;2022-10-30T11:18:04;26.30;90.10
21115;DHT22;10715;48.546;9.896;2022-10-30T11:23:00;27.10;88.30
21115;DHT22;10715;48.546;9.896;2022-10-30T11:25:33;27.00;88.30
21115;DHT22;10715;48.546;9.896;2022-10-30T11:28:03;26.40;90.00
21115;DHT22;10715;48.546;9.896;2022-10-30T11:30:30;25.60;90.90
21115;DHT22;10715;48.546;9.896;2022-10-30T11:32:56;24.70;92.00
21115;DHT22;10715;48.546;9.896;2022-10-30T11:35:23;23.90;93.30
21115;DHT22;10715;48.546;9.896;2022-10-30T11:37:51;23.20;94.90
21115;DHT22;10715;48.546;9.896;2022-10-30T11:40:20;22.60;95.80
21115;DHT22;10715;48.546;9.896;2022-10-30T11:42:57;22.20;97.30
21115;DHT22;10715;48.546;9.896;2022-10-30T11:45:32;21.90;98.80
21115;DHT22;10715;48.546;9.896;2022-10-30T11:47:59;21.60;99.20
21115;DHT22;10715;48.546;9.896;2022-10-30T11:50:30;21.40;99.90
21115;DHT22;10715;48.546;9.896;2022-10-30T11:53:15;21.30;99.90
21115;DHT22;10715;48.546;9.896;2022-10-30T11:55:45;21.20;99.80
21115;DHT22;10715;48.546;9.896;2022-10-30T11:58:33;21.10;99.90
21115;DHT22;10715;48.546;9.896;2022-10-30T12:01:26;21.00;99.90
21115;DHT22;10715;48.546;9.896;2022-10-30T12:03:50;21.00;99.80
21115;DHT22;10715;48.546;9.896;2022-10-30T12:06:26;21.00;99.80
21115;DHT22;10715;48.546;9.896;2022-10-30T12:11:43;21.00;99.40
21115;DHT22;10715;48.546;9.896;2022-10-30T12:14:20;21.00;99.40
21115;DHT22;10715;48.546;9.896;2022-10-30T12:16:51;21.00;99.90
21115;DHT22;10715;48.546;9.896;2022-10-30T12:19:21;21.00;99.90
21115;DHT22;10715;48.546;9.896;2022-10-30T12:21:49;21.00;98.20
21115;DHT22;10715;48.546;9.896;2022-10-30T12:24:35;21.00;97.80
21115;DHT22;10715;48.546;9.896;2022-10-30T12:27:04;21.00;98.00
21115;DHT22;10715;48.546;9.896;2022-10-30T12:30:13;21.10;98.60
21115;DHT22;10715;48.546;9.896;2022-10-30T12:35:39;21.10;99.00
21115;DHT22;10715;48.546;9.896;2022-10-30T12:38:32;21.10;97.80
21115;DHT22;10715;48.546;9.896;2022-10-30T12:41:13;21.10;98.30
21115;DHT22;10715;48.546;9.896;2022-10-30T12:43:44;21.20;97.30
21115;DHT22;10715;48.546;9.896;2022-10-30T12:52:00;21.20;97.20
21115;DHT22;10715;48.546;9.896;2022-10-30T12:54:53;21.20;96.40
21115;DHT22;10715;48.546;9.896;2022-10-30T12:57:27;21.20;96.30
21115;DHT22;10715;48.546;9.896;2022-10-30T13:11:02;21.20;95.70
21115;DHT22;10715;48.546;9.896;2022-10-30T13:13:37;21.20;96.90
21115;DHT22;10715;48.546;9.896;2022-10-30T13:16:09;21.10;97.50
21115;DHT22;10715;48.546;9.896;2022-10-30T13:18:37;21.10;98.10
21115;DHT22;10715;48.546;9.896;2022-10-30T13:23:51;20.90;97.50
21115;DHT22;10715;48.546;9.896;2022-10-30T13:29:37;20.80;97.50
21115;DHT22;10715;48.546;9.896;2022-10-30T13:32:31;20.80;97.70
21115;DHT22;10715;48.546;9.896;2022-10-30T13:48:09;20.80;99.20
21115;DHT22;10715;48.546;9.896;2022-10-30T13:53:19;20.70;99.60
21115;DHT22;10715;48.546;9.896;2022-10-30T13:55:47;20.70;99.40
21115;DHT22;10715;48.546;9.896;2022-10-30T14:04:06;20.50;99.00
21115;DHT22;10715;48.546;9.896;2022-10-30T14:09:25;20.40;99.30
21115;DHT22;10715;48.546;9.896;2022-10-30T14:11:53;20.20;98.70
21115;DHT22;10715;48.546;9.896;2022-10-30T14:22:30;19.80;99.80
21115;DHT22;10715;48.546;9.896;2022-10-30T14:24:57;19.70;99.90
21115;DHT22;10715;48.546;9.896;2022-10-30T14:27:31;19.70;99.90
21115;DHT22;10715;48.546;9.896;2022-10-30T14:29:58;19.60;99.90
21115;DHT22;10715;48.546;9.896;2022-10-30T14:39:49;19.30;99.90
21115;DHT22;10715;48.546;9.896;2022-10-30T14:42:31;19.20;99.90
21115;DHT22;10715;48.546;9.896;2022-10-30T14:58:29;18.20;99.90
21115;DHT22;10715;48.546;9.896;2022-10-30T15:04:07;17.80;99.90
21115;DHT22;10715;48.546;9.896;2022-10-30T15:14:37;17.00;99.90
21115;DHT22;10715;48.546;9.896;2022-10-30T15:17:04;16.90;99.90
21115;DHT22;10715;48.546;9.896;2022-10-30T15:19:31;16.70;99.90
21115;DHT22;10715;48.546;9.896;2022-10-30T15:21:58;16.50;99.90
21115;DHT22;10715;48.546;9.896;2022-10-30T15:24:28;16.30;99.90
21115;DHT22;10715;48.546;9.896;2022-10-30T15:26:59;16.20;99.90
21115;DHT22;10715;48.546;9.896;2022-10-30T15:29:34;16.00;99.90
21115;DHT22;10715;48.546;9.896;2022-10-30T15:32:02;15.90;99.90
21115;DHT22;10715;48.546;9.896;2022-10-30T15:34:29;15.70;99.90
21115;DHT22;10715;48.546;9.896;2022-10-30T15:36:56;15.60;99.90
21115;DHT22;10715;48.546;9.896;2022-10-30T15:39:22;15.50;99.90
21115;DHT22;10715;48.546;9.896;2022-10-30T15:41:57;15.40;99.90
21115;DHT22;10715;48.546;9.896;2022-10-30T15:44:33;15.20;99.90
21115;DHT22;10715;48.546;9.896;2022-10-30T15:47:01;15.10;99.90
21115;DHT22;10715;48.546;9.896;2022-10-30T15:49:37;15.00;99.90
21115;DHT22;10715;48.546;9.896;2022-10-30T15:52:22;14.90;99.90
21115;DHT22;10715;48.546;9.896;2022-10-30T15:54:56;14.80;99.90
21115;DHT22;10715;48.546;9.896;2022-10-30T15:57:43;14.60;99.90
21115;DHT22;10715;48.546;9.896;2022-10-30T16:00:25;14.50;99.90
21115;DHT22;10715;48.546;9.896;2022-10-30T16:05:24;14.20;99.90
21115;DHT22;10715;48.546;9.896;2022-10-30T16:07:55;14.10;99.90
21115;DHT22;10715;48.546;9.896;2022-10-30T16:10:22;14.00;99.90
21115;DHT22;10715;48.546;9.896;2022-10-30T16:12:48;13.90;99.90
21115;DHT22;10715;48.546;9.896;2022-10-30T16:15:25;13.80;99.90
21115;DHT22;10715;48.546;9.896;2022-10-30T16:18:26;13.70;99.90
21115;DHT22;10715;48.546;9.896;2022-10-30T16:21:00;13.60;99.90
21115;DHT22;10715;48.546;9.896;2022-10-30T16:23:29;13.50;99.90
21115;DHT22;10715;48.546;9.896;2022-10-30T16:26:01;13.40;99.90
21115;DHT22;10715;48.546;9.896;2022-10-30T16:28:32;13.30;99.90
21115;DHT22;10715;48.546;9.896;2022-10-30T16:31:03;13.30;99.90
21115;DHT22;10715;48.546;9.896;2022-10-30T16:33:31;13.30;99.90
21115;DHT22;10715;48.546;9.896;2022-10-30T16:35:59;13.30;99.90
21115;DHT22;10715;48.546;9.896;2022-10-30T16:38:28;13.20;99.90
21115;DHT22;10715;48.546;9.896;2022-10-30T16:40:56;13.20;99.90
21115;DHT22;10715;48.546;9.896;2022-10-30T16:43:32;13.10;99.90
21115;DHT22;10715;48.546;9.896;2022-10-30T16:48:51;13.00;99.90
21115;DHT22;10715;48.546;9.896;2022-10-30T16:51:19;12.90;99.90
21115;DHT22;10715;48.546;9.896;2022-10-30T16:53:50;12.90;99.90
21115;DHT22;10715;48.546;9.896;2022-10-30T16:56:30;12.90;99.90
21115;DHT22;10715;48.546;9.896;2022-10-30T16:59:11;12.80;99.90
21115;DHT22;10715;48.546;9.896;2022-10-30T17:01:38;12.70;99.90
21115;DHT22;10715;48.546;9.896;2022-10-30T17:04:04;12.60;99.90
21115;DHT22;10715;48.546;9.896;2022-10-30T17:06:40;12.60;99.90
21115;DHT22;10715;48.546;9.896;2022-10-30T17:09:14;12.50;99.90
21115;DHT22;10715;48.546;9.896;2022-10-30T17:11:47;12.40;99.90
21115;DHT22;10715;48.546;9.896;2022-10-30T17:14:24;12.30;99.90
21115;DHT22;10715;48.546;9.896;2022-10-30T17:16:55;12.30;99.90
21115;DHT22;10715;48.546;9.896;2022-10-30T17:21:58;12.20;99.90
21115;DHT22;10715;48.546;9.896;2022-10-30T17:24:29;12.10;99.90
21115;DHT22;10715;48.546;9.896;2022-10-30T17:26:59;12.10;99.90
21115;DHT22;10715;48.546;9.896;2022-10-30T17:32:20;11.90;99.90
21115;DHT22;10715;48.546;9.896;2022-10-30T17:34:47;11.80;99.90
21115;DHT22;10715;48.546;9.896;2022-10-30T17:37:13;11.70;99.90
21115;DHT22;10715;48.546;9.896;2022-10-30T17:39:38;11.70;99.90
21115;DHT22;10715;48.546;9.896;2022-10-30T17:42:06;11.60;99.90
21115;DHT22;10715;48.546;9.896;2022-10-30T17:44:34;11.60;99.90
21115;DHT22;10715;48.546;9.896;2022-10-30T17:47:11;11.50;99.90
21115;DHT22;10715;48.546;9.896;2022-10-30T17:49:38;11.40;99.90
21115;DHT22;10715;48.546;9.896;2022-10-30T17:52:05;11.40;99.90
21115;DHT22;10715;48.546;9.896;2022-10-30T17:54:31;11.30;99.90
21115;DHT22;10715;48.546;9.896;2022-10-30T17:56:57;11.20;99.90
21115;DHT22;10715;48.546;9.896;2022-10-30T17:59:23;11.10;99.90
21115;DHT22;10715;48.546;9.896;2022-10-30T18:01:48;11.10;99.90
21115;DHT22;10715;48.546;9.896;2022-10-30T18:04:16;11.00;99.90
21115;DHT22;10715;48.546;9.896;2022-10-30T18:06:42;10.90;99.90
21115;DHT22;10715;48.546;9.896;2022-10-30T18:09:09;10.90;99.90
21115;DHT22;10715;48.546;9.896;2022-10-30T18:11:35;10.80;99.90
21115;DHT22;10715;48.546;9.896;2022-10-30T18:14:02;10.80;99.90
21115;DHT22;10715;48.546;9.896;2022-10-30T18:16:28;10.70;99.90
21115;DHT22;10715;48.546;9.896;2022-10-30T18:18:55;10.70;99.90
21115;DHT22;10715;48.546;9.896;2022-10-30T18:21:22;10.60;99.90
21115;DHT22;10715;48.546;9.896;2022-10-30T18:23:49;10.60;99.90
21115;DHT22;10715;48.546;9.896;2022-10-30T18:26:19;10.50;99.90
21115;DHT22;10715;48.546;9.896;2022-10-30T18:28:45;10.50;99.90
21115;DHT22;10715;48.546;9.896;2022-10-30T18:31:12;10.40;99.90
21115;DHT22;10715;48.546;9.896;2022-10-30T18:33:40;10.30;99.90
21115;DHT22;10715;48.546;9.896;2022-10-30T18:36:16;10.30;99.90
21115;DHT22;10715;48.546;9.896;2022-10-30T18:38:42;10.20;99.90
21115;DHT22;10715;48.546;9.896;2022-10-30T18:41:35;10.20;99.90
21115;DHT22;10715;48.546;9.896;2022-10-30T18:44:02;10.10;99.90
21115;DHT22;10715;48.546;9.896;2022-10-30T18:46:31;10.00;99.90
21115;DHT22;10715;48.546;9.896;2022-10-30T18:48:57;9.90;99.90
21115;DHT22;10715;48.546;9.896;2022-10-30T18:51:25;9.90;99.90
21115;DHT22;10715;48.546;9.896;2022-10-30T18:53:51;9.80;99.90